createdAt,value
2022-09-03T00:02:28.749Z,100958.59
2022-09-03T00:05:10.156Z,100958.47
2022-09-03T00:07:48.887Z,100955.34
2022-09-03T00:10:29.528Z,100951.00
2022-09-03T00:13:06.340Z,100945.41
2022-09-03T00:15:41.692Z,100945.41
2022-09-03T00:18:18.212Z,100942.84
2022-09-03T00:20:59.426Z,100941.59
2022-09-03T00:23:32.955Z,100947.09
2022-09-03T00:26:18.397Z,100943.06
2022-09-03T00:28:59.132Z,100941.38
2022-09-03T00:31:38.358Z,100939.25
2022-09-03T00:34:15.986Z,100935.13
2022-09-03T00:36:50.321Z,100940.94
2022-09-03T00:39:25.083Z,100938.47
2022-09-03T00:42:14.096Z,100933.00
2022-09-03T00:45:03.844Z,100931.44
2022-09-03T00:47:48.629Z,100942.91
2022-09-03T00:50:32.779Z,100947.50
2022-09-03T00:53:13.482Z,100944.47
2022-09-03T00:55:58.438Z,100935.66
2022-09-03T00:58:51.993Z,100943.25
2022-09-03T01:01:30.977Z,100940.19
2022-09-03T01:04:21.148Z,100936.63
2022-09-03T01:07:00.799Z,100936.03
2022-09-03T01:09:50.278Z,100942.00
2022-09-03T01:12:35.963Z,100939.19
2022-09-03T01:15:16.371Z,100944.88
2022-09-03T01:18:03.373Z,100940.84
2022-09-03T01:20:49.950Z,100935.59
2022-09-03T01:23:39.452Z,100933.03
2022-09-03T01:26:28.573Z,100945.06
2022-09-03T01:29:13.639Z,100945.97
2022-09-03T01:31:58.621Z,100951.09
2022-09-03T01:34:44.976Z,100953.19
2022-09-03T01:37:32.312Z,100949.28
2022-09-03T01:40:19.232Z,100945.84
2022-09-03T01:43:05.204Z,100943.03
2022-09-03T01:45:51.585Z,100944.09
2022-09-03T01:48:35.768Z,100947.16
2022-09-03T01:51:20.957Z,100945.78
2022-09-03T01:54:21.027Z,100941.84
2022-09-03T01:57:35.773Z,100936.38
2022-09-03T02:00:13.470Z,100938.41
2022-09-03T02:02:51.114Z,100941.03
2022-09-03T02:05:26.203Z,100930.56
2022-09-03T02:08:01.586Z,100934.00
2022-09-03T02:10:40.973Z,100939.66
2022-09-03T02:13:19.685Z,100934.97
2022-09-03T02:15:54.807Z,100932.88
2022-09-03T02:18:34.612Z,100932.34
2022-09-03T02:21:10.756Z,100935.47
2022-09-03T02:23:43.823Z,100925.31
2022-09-03T02:26:18.080Z,100925.19
2022-09-03T02:28:51.905Z,100926.59
2022-09-03T02:31:25.296Z,100919.81
2022-09-03T02:33:59.963Z,100916.69
2022-09-03T02:36:35.041Z,100929.41
2022-09-03T02:39:08.256Z,100920.00
2022-09-03T02:41:41.499Z,100926.09
2022-09-03T02:44:19.953Z,100935.41
2022-09-03T02:46:58.096Z,100929.75
2022-09-03T02:49:32.916Z,100923.91
2022-09-03T02:52:09.531Z,100938.38
2022-09-03T02:54:46.033Z,100924.03
2022-09-03T02:57:27.473Z,100929.22
2022-09-03T03:00:01.373Z,100933.69
2022-09-03T03:02:34.390Z,100929.78
2022-09-03T03:05:10.071Z,100929.06
2022-09-03T03:07:43.088Z,100933.41
2022-09-03T03:10:16.201Z,100927.06
2022-09-03T03:12:50.381Z,100932.38
2022-09-03T03:15:23.132Z,100934.53
2022-09-03T03:17:57.332Z,100927.50
2022-09-03T03:20:31.699Z,100933.06
2022-09-03T03:23:05.585Z,100928.38
2022-09-03T03:25:40.046Z,100927.41
2022-09-03T03:28:13.708Z,100921.22
2022-09-03T03:30:48.552Z,100927.69
2022-09-03T03:33:22.288Z,100929.41
2022-09-03T03:35:57.750Z,100924.47
2022-09-03T03:38:30.525Z,100922.19
2022-09-03T03:41:08.724Z,100916.38
2022-09-03T03:43:41.623Z,100925.91
2022-09-03T03:46:15.080Z,100922.41
2022-09-03T03:48:49.221Z,100924.72
2022-09-03T03:51:23.657Z,100937.75
2022-09-03T03:54:00.173Z,100929.75
2022-09-03T03:56:36.554Z,100926.28
2022-09-03T03:59:09.709Z,100932.69
2022-09-03T04:01:42.541Z,100926.28
2022-09-03T04:04:15.301Z,100927.84
2022-09-03T04:06:49.518Z,100922.28
2022-09-03T04:09:22.490Z,100923.13
2022-09-03T04:11:56.815Z,100927.97
2022-09-03T04:14:30.032Z,100923.13
2022-09-03T04:17:03.581Z,100912.50
2022-09-03T04:19:36.692Z,100924.75
2022-09-03T04:22:10.614Z,100920.84
2022-09-03T04:24:43.504Z,100922.06
2022-09-03T04:27:16.211Z,100924.41
2022-09-03T04:29:48.928Z,100920.56
2022-09-03T04:32:39.596Z,100918.66
2022-09-03T04:35:12.355Z,100922.91
2022-09-03T04:37:46.388Z,100919.00
2022-09-03T04:40:19.280Z,100914.44
2022-09-03T04:42:52.390Z,100923.16
2022-09-03T04:45:25.602Z,100921.84
2022-09-03T04:48:00.176Z,100922.81
2022-09-03T04:50:35.593Z,100914.97
2022-09-03T04:53:09.663Z,100923.16
2022-09-03T04:55:42.466Z,100924.63
2022-09-03T04:58:15.413Z,100921.06
2022-09-03T05:00:48.068Z,100919.94
2022-09-03T05:03:22.019Z,100930.34
2022-09-03T05:05:55.952Z,100929.56
2022-09-03T05:08:29.984Z,100926.47
2022-09-03T05:11:02.732Z,100926.47
2022-09-03T05:13:36.971Z,100935.69
2022-09-03T05:16:11.634Z,100936.41
2022-09-03T05:18:45.120Z,100928.91
2022-09-03T05:21:19.525Z,100928.47
2022-09-03T05:23:54.043Z,100927.78
2022-09-03T05:26:28.532Z,100927.50
2022-09-03T05:29:04.260Z,100923.22
2022-09-03T05:31:39.185Z,100926.63
2022-09-03T05:34:16.380Z,100932.34
2022-09-03T05:36:50.822Z,100934.91
2022-09-03T05:39:24.931Z,100931.22
2022-09-03T05:41:57.767Z,100945.47
2022-09-03T05:44:31.583Z,100943.25
2022-09-03T05:47:04.303Z,100938.06
2022-09-03T05:49:37.025Z,100925.16
2022-09-03T05:52:10.076Z,100945.91
2022-09-03T05:54:43.902Z,100941.53
2022-09-03T05:57:16.555Z,100952.38
2022-09-03T05:59:49.220Z,100951.06
2022-09-03T06:02:22.090Z,100950.28
2022-09-03T06:04:56.049Z,100955.91
2022-09-03T06:07:29.291Z,100953.84
2022-09-03T06:10:03.916Z,100956.72
2022-09-03T06:12:37.141Z,100958.28
2022-09-03T06:15:10.685Z,100957.50
2022-09-03T06:17:43.606Z,100953.03
2022-09-03T06:20:16.293Z,100955.41
2022-09-03T06:22:52.666Z,100960.13
2022-09-03T06:25:27.668Z,100958.38
2022-09-03T06:28:02.219Z,100961.84
2022-09-03T06:30:36.223Z,100967.03
2022-09-03T06:33:08.901Z,100961.06
2022-09-03T06:35:43.063Z,100957.97
2022-09-03T06:38:16.196Z,100966.41
2022-09-03T06:40:54.832Z,100968.88
2022-09-03T06:43:27.842Z,100969.00
2022-09-03T06:46:01.437Z,100963.59
2022-09-03T06:48:34.836Z,100969.94
2022-09-03T06:51:09.268Z,100970.53
2022-09-03T06:53:44.256Z,100973.28
2022-09-03T06:56:20.805Z,100965.59
2022-09-03T06:58:54.884Z,100963.59
2022-09-03T07:01:31.610Z,100965.94
2022-09-03T07:04:06.139Z,100971.09
2022-09-03T07:06:42.281Z,100970.50
2022-09-03T07:09:15.510Z,100966.94
2022-09-03T07:11:49.804Z,100968.31
2022-09-03T07:14:23.106Z,100975.13
2022-09-03T07:16:55.954Z,100970.22
2022-09-03T07:19:29.048Z,100977.13
2022-09-03T07:22:01.729Z,100968.28
2022-09-03T07:24:34.424Z,100966.50
2022-09-03T07:27:11.848Z,100967.72
2022-09-03T07:29:48.161Z,100965.22
2022-09-03T07:32:20.820Z,100974.78
2022-09-03T07:34:53.536Z,100978.53
2022-09-03T07:37:26.296Z,100973.69
2022-09-03T07:39:59.254Z,100974.22
2022-09-03T07:42:33.168Z,100985.88
2022-09-03T07:45:10.107Z,100984.19
2022-09-03T07:47:49.484Z,100983.88
2022-09-03T07:50:22.660Z,100981.94
2022-09-03T07:52:57.562Z,100990.69
2022-09-03T07:55:30.474Z,100991.94
2022-09-03T07:58:04.544Z,100994.00
2022-09-03T08:00:37.385Z,100996.28
2022-09-03T08:03:11.068Z,100989.81
2022-09-03T08:05:43.772Z,100989.66
2022-09-03T08:08:17.828Z,100992.09
2022-09-03T08:10:50.765Z,100995.84
2022-09-03T08:13:24.680Z,101000.78
2022-09-03T08:16:01.398Z,100999.09
2022-09-03T08:18:37.885Z,100996.28
2022-09-03T08:21:14.866Z,101002.34
2022-09-03T08:23:49.235Z,100995.19
2022-09-03T08:26:23.773Z,101003.28
2022-09-03T08:28:57.925Z,100998.03
2022-09-03T08:31:32.356Z,100995.13
2022-09-03T08:34:07.796Z,100996.25
2022-09-03T08:36:42.203Z,101004.97
2022-09-03T08:39:14.986Z,101006.63
2022-09-03T08:42:03.562Z,101009.28
2022-09-03T08:44:47.039Z,101014.97
2022-09-03T08:47:22.976Z,101015.59
2022-09-03T08:49:59.216Z,101015.88
2022-09-03T08:52:35.399Z,101012.25
2022-09-03T08:55:19.228Z,101004.59
2022-09-03T08:57:56.258Z,101019.31
2022-09-03T09:00:42.015Z,101016.09
2022-09-03T09:03:32.992Z,101016.81
2022-09-03T09:06:15.404Z,101014.72
2022-09-03T09:09:00.316Z,101020.28
2022-09-03T09:11:47.154Z,101019.19
2022-09-03T09:14:24.340Z,101021.41
2022-09-03T09:17:09.365Z,101018.22
2022-09-03T09:19:56.006Z,101015.16
2022-09-03T09:22:33.990Z,101011.75
2022-09-03T09:25:14.375Z,101018.31
2022-09-03T09:27:52.070Z,101020.03
2022-09-03T09:30:24.862Z,101021.19
2022-09-03T09:33:00.623Z,101020.69
2022-09-03T09:35:33.378Z,101015.72
2022-09-03T09:38:06.038Z,101012.75
2022-09-03T09:40:45.034Z,101019.78
2022-09-03T09:43:21.519Z,101018.06
2022-09-03T09:45:55.610Z,101020.25
2022-09-03T09:48:34.015Z,101024.59
2022-09-03T09:51:09.939Z,101028.34
2022-09-03T09:53:44.996Z,101025.03
2022-09-03T09:56:25.526Z,101019.72
2022-09-03T09:59:08.841Z,101018.34
2022-09-03T10:01:44.099Z,101022.06
2022-09-03T10:04:32.871Z,101011.13
2022-09-03T10:07:22.923Z,101019.88
2022-09-03T10:10:07.791Z,101018.88
2022-09-03T10:12:43.406Z,101019.94
2022-09-03T10:15:24.958Z,101021.41
2022-09-03T10:18:03.188Z,101029.66
2022-09-03T10:20:47.240Z,101021.75
2022-09-03T10:23:24.904Z,101023.75
2022-09-03T10:26:07.345Z,101033.69
2022-09-03T10:28:41.770Z,101035.25
2022-09-03T10:31:31.877Z,101037.00
2022-09-03T10:34:13.888Z,101027.00
2022-09-03T10:36:56.534Z,101027.81
2022-09-03T10:39:43.250Z,101028.34
2022-09-03T10:42:31.144Z,101022.16
2022-09-03T10:45:14.771Z,101030.78
2022-09-03T10:48:27.957Z,101033.78
2022-09-03T10:51:07.685Z,101037.34
2022-09-03T10:53:55.989Z,101032.88
2022-09-03T10:56:34.869Z,101032.44
2022-09-03T10:59:25.095Z,101026.09
2022-09-03T11:02:19.576Z,101026.13
2022-09-03T11:04:59.778Z,101022.69
2022-09-03T11:07:40.189Z,101022.22
2022-09-03T11:10:19.301Z,101023.78
2022-09-03T11:13:02.426Z,101020.34
2022-09-03T11:15:41.173Z,101022.59
2022-09-03T11:18:22.852Z,101025.91
2022-09-03T11:21:01.888Z,101026.97
2022-09-03T11:23:40.626Z,101024.78
2022-09-03T11:26:19.343Z,101029.94
2022-09-03T11:29:00.018Z,101025.59
2022-09-03T11:31:47.705Z,101024.97
2022-09-03T11:34:32.638Z,101023.44
2022-09-03T11:37:18.631Z,101021.19
2022-09-03T11:40:04.706Z,101013.88
2022-09-03T11:42:41.984Z,101012.91
2022-09-03T11:45:22.843Z,101009.88
2022-09-03T11:47:56.285Z,101012.44
2022-09-03T11:50:31.643Z,101009.66
2022-09-03T11:53:23.110Z,101008.59
2022-09-03T11:55:58.539Z,101000.50
2022-09-03T11:58:34.748Z,100998.97
2022-09-03T12:01:14.996Z,101003.50
2022-09-03T12:03:54.338Z,101008.56
2022-09-03T12:06:43.757Z,101002.31
2022-09-03T12:09:35.131Z,101000.41
2022-09-03T12:12:23.966Z,101001.22
2022-09-03T12:15:07.326Z,101000.22
2022-09-03T12:18:10.785Z,101003.63
2022-09-03T12:20:43.959Z,101000.22
2022-09-03T12:23:29.238Z,101010.97
2022-09-03T12:26:05.737Z,101006.69
2022-09-03T12:28:44.801Z,101004.59
2022-09-03T12:31:22.902Z,101008.31
2022-09-03T12:33:59.173Z,101004.22
2022-09-03T12:36:38.969Z,101011.41
2022-09-03T12:39:13.110Z,101004.69
2022-09-03T12:42:01.271Z,101007.84
2022-09-03T12:44:41.421Z,100998.75
2022-09-03T12:47:36.539Z,101004.88
2022-09-03T12:50:12.421Z,101005.88
2022-09-03T12:52:48.788Z,101009.50
2022-09-03T12:55:34.679Z,101002.94
2022-09-03T12:58:14.060Z,101003.94
2022-09-03T13:00:51.064Z,101001.09
2022-09-03T13:03:33.909Z,101002.41
2022-09-03T13:06:10.544Z,101004.38
2022-09-03T13:08:50.336Z,101000.72
2022-09-03T13:11:25.472Z,100994.66
2022-09-03T13:14:05.370Z,100988.69
2022-09-03T13:17:16.422Z,100996.94
2022-09-03T13:20:08.875Z,100989.03
2022-09-03T13:23:11.924Z,100994.00
2022-09-03T13:25:50.802Z,100999.03
2022-09-03T13:28:40.102Z,100995.31
2022-09-03T13:31:27.175Z,100990.75
2022-09-03T13:34:04.463Z,100991.53
2022-09-03T13:36:47.197Z,100993.53
2022-09-03T13:39:27.627Z,100995.31
2022-09-03T13:42:07.551Z,100994.72
2022-09-03T13:44:46.211Z,100977.16
2022-09-03T13:47:30.679Z,100979.38
2022-09-03T13:50:24.188Z,100985.25
2022-09-03T13:53:05.165Z,100983.03
2022-09-03T13:55:45.084Z,100994.16
2022-09-03T13:58:25.346Z,100990.19
2022-09-03T14:01:13.410Z,100990.53
2022-09-03T14:03:49.581Z,100987.34
2022-09-03T14:06:37.014Z,100982.03
2022-09-03T14:09:16.928Z,100992.31
2022-09-03T14:11:56.054Z,100995.09
2022-09-03T14:14:44.708Z,100978.06
2022-09-03T14:17:38.438Z,100984.00
2022-09-03T14:20:19.796Z,100986.66
2022-09-03T14:22:58.205Z,100984.25
2022-09-03T14:25:33.453Z,100985.28
2022-09-03T14:28:20.432Z,100981.59
2022-09-03T14:31:00.650Z,100986.06
2022-09-03T14:33:41.005Z,100984.81
2022-09-03T14:36:21.468Z,100985.91
2022-09-03T14:39:10.609Z,100978.47
2022-09-03T14:42:00.315Z,100978.19
2022-09-03T14:45:08.621Z,100986.34
2022-09-03T14:47:58.369Z,100983.63
2022-09-03T14:50:55.157Z,100988.91
2022-09-03T14:54:02.764Z,100986.75
2022-09-03T14:56:48.835Z,100984.25
2022-09-03T14:59:43.480Z,100978.13
2022-09-03T15:02:45.508Z,100986.63
2022-09-03T15:05:28.899Z,100987.44
2022-09-03T15:08:10.331Z,100992.38
2022-09-03T15:10:47.243Z,100980.00
2022-09-03T15:13:22.914Z,100983.84
2022-09-03T15:16:31.407Z,100980.53
2022-09-03T15:19:14.430Z,100989.47
2022-09-03T15:22:04.185Z,100983.56
2022-09-03T15:24:51.686Z,100982.31
2022-09-03T15:27:41.981Z,100988.13
2022-09-03T15:30:19.347Z,100989.19
2022-09-03T15:33:06.495Z,100983.44
2022-09-03T15:36:18.118Z,100987.72
2022-09-03T15:38:57.512Z,100983.25
2022-09-03T15:41:41.284Z,100990.63
2022-09-03T15:44:19.187Z,100986.31
2022-09-03T15:46:58.755Z,100990.31
2022-09-03T15:49:46.158Z,100985.50
2022-09-03T15:52:31.412Z,100980.94
2022-09-03T15:55:11.080Z,100981.59
2022-09-03T15:57:54.741Z,100979.63
2022-09-03T16:00:32.519Z,100975.09
2022-09-03T16:03:10.882Z,100980.84
2022-09-03T16:05:50.848Z,100981.72
2022-09-03T16:08:31.315Z,100989.53
2022-09-03T16:11:14.216Z,100981.09
2022-09-03T16:13:58.366Z,100985.03
2022-09-03T16:16:48.297Z,100994.16
2022-09-03T16:19:29.404Z,100986.19
2022-09-03T16:22:08.488Z,100988.59
2022-09-03T16:24:46.145Z,100982.19
2022-09-03T16:27:23.751Z,100985.84
2022-09-03T16:30:03.691Z,100986.13
2022-09-03T16:33:01.184Z,100987.97
2022-09-03T16:35:46.580Z,100985.47
2022-09-03T16:38:32.274Z,100983.69
2022-09-03T16:41:16.738Z,100982.16
2022-09-03T16:44:06.030Z,100981.94
2022-09-03T16:46:46.576Z,100990.97
2022-09-03T16:49:38.011Z,100986.34
2022-09-03T16:52:33.531Z,100979.41
2022-09-03T16:55:21.426Z,100987.34
2022-09-03T16:58:12.593Z,100988.66
2022-09-03T17:01:00.943Z,100992.53
2022-09-03T17:04:11.684Z,100993.31
2022-09-03T17:06:57.366Z,101005.75
2022-09-03T17:09:52.958Z,101001.13
2022-09-03T17:12:36.607Z,101006.53
2022-09-03T17:15:31.496Z,100996.19
2022-09-03T17:18:27.677Z,101010.09
2022-09-03T17:21:13.044Z,101009.03
2022-09-03T17:24:33.700Z,101019.88
2022-09-03T17:27:21.226Z,101017.00
2022-09-03T17:30:05.192Z,101020.31
2022-09-03T17:32:57.344Z,101011.81
2022-09-03T17:35:39.514Z,101015.84
2022-09-03T17:38:28.849Z,101030.72
2022-09-03T17:41:16.047Z,101022.94
2022-09-03T17:44:00.594Z,101027.53
2022-09-03T17:46:45.494Z,101025.44
2022-09-03T17:49:24.968Z,101032.41
2022-09-03T17:52:04.659Z,101038.38
2022-09-03T17:54:44.177Z,101035.59
2022-09-03T17:57:24.661Z,101049.00
2022-09-03T18:00:02.597Z,101048.13
2022-09-03T18:02:46.984Z,101052.81
2022-09-03T18:05:23.609Z,101062.50
2022-09-03T18:08:04.896Z,101059.19
2022-09-03T18:10:48.442Z,101064.16
2022-09-03T18:13:32.553Z,101067.28
2022-09-03T18:16:10.709Z,101065.81
2022-09-03T18:18:48.799Z,101081.19
2022-09-03T18:21:41.184Z,101080.81
2022-09-03T18:24:46.649Z,101084.81
2022-09-03T18:27:51.504Z,101095.22
2022-09-03T18:30:46.698Z,101098.50
2022-09-03T18:33:42.023Z,101103.34
2022-09-03T18:36:34.301Z,101102.97
2022-09-03T18:39:33.452Z,101106.56
2022-09-03T18:42:31.491Z,101107.41
2022-09-03T18:45:48.816Z,101113.97
2022-09-03T18:48:51.884Z,101119.75
2022-09-03T18:51:53.664Z,101111.00
2022-09-03T18:55:07.384Z,101111.56
2022-09-03T18:58:13.471Z,101115.66
2022-09-03T19:01:11.673Z,101113.66
2022-09-03T19:04:11.080Z,101123.41
2022-09-03T19:07:09.872Z,101128.16
2022-09-03T19:10:10.127Z,101128.75
2022-09-03T19:13:13.723Z,101131.16
2022-09-03T19:16:06.864Z,101141.97
2022-09-03T19:19:19.782Z,101141.69
2022-09-03T19:22:18.100Z,101132.66
2022-09-03T19:25:12.035Z,101148.34
2022-09-03T19:28:14.045Z,101139.13
2022-09-03T19:31:24.374Z,101134.78
2022-09-03T19:34:24.927Z,101139.00
2022-09-03T19:37:22.914Z,101144.81
2022-09-03T19:40:30.393Z,101146.81
2022-09-03T19:43:30.815Z,101145.59
2022-09-03T19:46:37.235Z,101144.06
2022-09-03T19:49:37.311Z,101148.75
2022-09-03T19:52:36.196Z,101143.47
2022-09-03T19:55:31.469Z,101154.25
2022-09-03T19:58:42.041Z,101144.41
2022-09-03T20:01:32.979Z,101142.22
2022-09-03T20:04:31.122Z,101149.41
2022-09-03T20:07:25.701Z,101155.47
2022-09-03T20:10:22.500Z,101157.03
2022-09-03T20:13:04.340Z,101160.59
2022-09-03T20:15:48.186Z,101159.50
2022-09-03T20:18:35.931Z,101154.03
2022-09-03T20:21:17.376Z,101156.25
2022-09-03T20:23:58.392Z,101159.19
2022-09-03T20:26:47.373Z,101162.47
2022-09-03T20:29:49.408Z,101164.97
2022-09-03T20:32:44.052Z,101160.31
2022-09-03T20:35:24.574Z,101166.44
2022-09-03T20:38:08.453Z,101165.00
2022-09-03T20:40:47.783Z,101182.16
2022-09-03T20:43:35.152Z,101174.69
2022-09-03T20:46:21.356Z,101177.81
2022-09-03T20:49:08.448Z,101176.56
2022-09-03T20:51:46.559Z,101190.13
2022-09-03T20:54:22.883Z,101173.75
2022-09-03T20:57:19.195Z,101181.72
2022-09-03T21:00:06.603Z,101183.72
2022-09-03T21:03:05.985Z,101184.31
2022-09-03T21:05:44.398Z,101184.03
2022-09-03T21:08:30.845Z,101190.59
2022-09-03T21:11:08.901Z,101187.75
2022-09-03T21:13:51.563Z,101188.22
2022-09-03T21:16:34.463Z,101186.50
2022-09-03T21:19:12.498Z,101184.47
2022-09-03T21:21:54.381Z,101191.50
2022-09-03T21:24:32.056Z,101189.59
2022-09-03T21:27:10.904Z,101184.63
2022-09-03T21:29:48.025Z,101187.56
2022-09-03T21:32:26.300Z,101189.59
2022-09-03T21:35:06.154Z,101191.59
2022-09-03T21:37:42.907Z,101191.72
2022-09-03T21:40:24.176Z,101199.25
2022-09-03T21:43:02.736Z,101200.16
2022-09-03T21:45:40.196Z,101201.38
2022-09-03T21:48:19.973Z,101198.53
2022-09-03T21:50:57.323Z,101209.91
2022-09-03T21:53:33.683Z,101208.34
2022-09-03T21:56:36.237Z,101205.19
2022-09-03T21:59:19.682Z,101201.69
2022-09-03T22:02:03.993Z,101212.94
2022-09-03T22:04:38.351Z,101203.72
2022-09-03T22:07:18.053Z,101213.06
2022-09-03T22:09:55.784Z,101211.63
2022-09-03T22:12:36.839Z,101212.41
2022-09-03T22:15:13.227Z,101214.91
2022-09-03T22:17:56.856Z,101217.22
2022-09-03T22:20:31.025Z,101218.25
2022-09-03T22:23:13.925Z,101214.31
2022-09-03T22:25:58.980Z,101215.09
2022-09-03T22:28:42.823Z,101212.72
2022-09-03T22:31:22.001Z,101210.94
2022-09-03T22:34:03.543Z,101207.50
2022-09-03T22:36:41.699Z,101211.84
2022-09-03T22:39:26.796Z,101218.34
2022-09-03T22:42:15.760Z,101218.97
2022-09-03T22:45:10.911Z,101218.63
2022-09-03T22:47:51.935Z,101212.69
2022-09-03T22:50:32.139Z,101215.66
2022-09-03T22:53:18.955Z,101217.31
2022-09-03T22:55:59.717Z,101220.91
2022-09-03T22:58:36.429Z,101219.38
2022-09-03T23:01:14.520Z,101219.22
2022-09-03T23:03:55.009Z,101219.63
2022-09-03T23:06:32.844Z,101222.69
2022-09-03T23:09:10.017Z,101224.84
2022-09-03T23:11:47.238Z,101236.84
2022-09-03T23:14:25.117Z,101233.81
2022-09-03T23:17:04.375Z,101234.38
2022-09-03T23:19:42.181Z,101234.03
2022-09-03T23:22:22.982Z,101238.84
2022-09-03T23:25:03.756Z,101239.00
2022-09-03T23:27:40.566Z,101235.50
2022-09-03T23:30:13.794Z,101232.06
2022-09-03T23:32:46.847Z,101235.75
2022-09-03T23:35:21.404Z,101235.41
2022-09-03T23:38:15.190Z,101233.09
2022-09-03T23:40:50.823Z,101237.22
2022-09-03T23:44:01.776Z,101230.28
2022-09-03T23:46:39.475Z,101234.31
2022-09-03T23:49:32.333Z,101246.41
2022-09-03T23:52:23.171Z,101242.63
2022-09-03T23:55:04.348Z,101243.50
2022-09-03T23:57:41.426Z,101241.03
